Time;durP1;ratioP1;P1;durP2;ratioP2;P2;SDS_P1;SDS_P2;PMS_P1;PMS_P2;Temp;Humidity;BMP_temperature;BMP_pressure;BME280_temperature;BME280_humidity;BME280_pressure;Samples;Min_cycle;Max_cycle;Signal;HPM_P1;HPM_P2
2022/01/13 00:01:30;;;;;;;67.40;28.65;;;;;;;5.22;77.23;103307.09;5025091;28;19967;-69
2022/01/13 00:03:58;;;;;;;71.85;32.42;;;;;;;5.09;77.73;103307.81;5025564;28;20045;-69
2022/01/13 00:06:25;;;;;;;70.28;31.98;;;;;;;5.12;77.51;103316.53;5025657;28;20132;-69
2022/01/13 00:08:51;;;;;;;69.93;30.63;;;;;;;5.36;76.36;103326.31;5025324;28;20045;-69
2022/01/13 00:11:17;;;;;;;73.28;32.38;;;;;;;4.85;77.84;103324.84;5026298;28;20049;-69
2022/01/13 00:13:48;;;;;;;73.53;31.67;;;;;;;4.93;77.67;103324.97;5026241;28;20076;-69
2022/01/13 00:16:39;;;;;;;;;;;;;;;5.00;76.92;103320.69;5027630;28;20048;-69
2022/01/13 00:19:20;;;;;;;73.45;28.85;;;;;;;5.03;77.39;103325.94;5017894;28;19952;-69
2022/01/13 00:21:57;;;;;;;82.78;58.10;;;;;;;4.82;77.65;103314.44;5007476;28;20640;-69
2022/01/13 00:24:23;;;;;;;70.85;31.00;;;;;;;4.65;78.34;103308.16;5025699;28;20041;-69
2022/01/13 00:26:49;;;;;;;69.60;29.15;;;;;;;4.53;79.23;103299.28;5026737;28;20168;-69
2022/01/13 00:29:20;;;;;;;62.80;29.13;;;;;;;4.53;79.17;103300.16;5026886;28;20049;-69
2022/01/13 00:31:47;;;;;;;61.85;35.00;;;;;;;4.54;78.89;103298.44;5026868;28;20541;-69
2022/01/13 00:34:14;;;;;;;63.13;26.90;;;;;;;4.73;78.54;103296.09;5027626;28;20053;-69
2022/01/13 00:36:41;;;;;;;61.53;27.02;;;;;;;4.64;78.43;103297.72;5026931;28;20041;-69
2022/01/13 00:39:09;;;;;;;68.63;37.25;;;;;;;4.68;78.40;103291.72;5027325;28;20041;-69
2022/01/13 00:41:36;;;;;;;68.53;29.58;;;;;;;4.65;78.08;103299.47;5027028;28;20107;-69
2022/01/13 00:44:06;;;;;;;51.30;27.60;;;;;;;4.73;77.73;103290.91;5024904;28;20126;-69
2022/01/13 00:46:41;;;;;;;60.87;26.93;;;;;;;4.78;77.79;103293.56;5019951;28;20046;-69
2022/01/13 00:49:08;;;;;;;60.08;23.88;;;;;;;5.19;76.38;103297.53;5024281;28;20045;-70
2022/01/13 00:51:36;;;;;;;60.67;29.10;;;;;;;4.82;77.03;103287.56;5023990;28;20053;-69
2022/01/13 00:54:05;;;;;;;77.47;63.33;;;;;;;4.89;76.90;103285.06;5024470;28;20514;-69
2022/01/13 00:56:32;;;;;;;64.90;31.30;;;;;;;5.00;76.92;103286.91;5023422;28;20053;-70
2022/01/13 00:58:59;;;;;;;52.80;23.20;;;;;;;5.05;76.24;103280.91;5021819;28;20049;-69
2022/01/13 01:01:25;;;;;;;52.97;24.13;;;;;;;5.12;76.44;103284.44;5022742;28;20049;-69
2022/01/13 01:03:52;;;;;;;58.40;22.10;;;;;;;5.27;75.37;103276.81;5023864;28;20115;-69
2022/01/13 01:06:20;;;;;;;52.53;23.13;;;;;;;5.31;75.14;103266.47;5024514;28;20042;-69
2022/01/13 01:08:48;;;;;;;88.68;73.97;;;;;;;4.97;75.98;103273.88;5027715;28;20575;-69
2022/01/13 01:11:14;;;;;;;62.15;24.75;;;;;;;4.87;76.81;103273.78;5030525;28;20051;-69
2022/01/13 01:13:41;;;;;;;53.63;23.02;;;;;;;4.88;76.79;103272.91;5029954;28;20045;-69
2022/01/13 01:16:11;;;;;;;52.72;26.92;;;;;;;4.90;76.85;103272.94;5023973;28;20049;-69
2022/01/13 01:18:48;;;;;;;53.83;21.98;;;;;;;4.89;76.87;103279.84;5022666;28;20519;-69
2022/01/13 01:26:44;;;;;;;52.05;22.90;;;;;;;5.19;75.65;103278.44;5021518;28;20041;-69
2022/01/13 01:29:20;;;;;;;57.70;21.00;;;;;;;5.45;74.54;103277.00;5029919;28;20111;-69
2022/01/13 01:31:50;;;;;;;46.40;20.38;;;;;;;5.26;75.08;103278.53;5028849;28;20140;-69
2022/01/13 01:34:29;;;;;;;52.30;21.00;;;;;;;5.50;74.17;103277.94;5025090;28;20050;-69
2022/01/13 01:36:56;;;;;;;48.75;22.13;;;;;;;5.60;73.71;103273.66;5016966;28;20112;-70
2022/01/13 01:39:24;;;;;;;45.33;21.30;;;;;;;5.39;74.34;103274.34;5024274;28;20091;-69
2022/01/13 01:41:52;;;;;;;52.95;20.83;;;;;;;5.51;73.76;103268.34;5026903;28;20100;-69
2022/01/13 01:44:23;;;;;;;46.83;21.40;;;;;;;5.81;72.54;103274.72;5028540;28;20050;-68
2022/01/13 01:46:49;;;;;;;46.78;20.40;;;;;;;5.78;72.33;103276.44;5028172;28;20447;-69
2022/01/13 01:49:20;;;;;;;47.60;20.27;;;;;;;5.62;72.97;103287.56;5028706;28;20069;-69
2022/01/13 01:51:48;;;;;;;43.35;20.08;;;;;;;5.56;73.19;103279.69;5027363;28;20570;-69
2022/01/13 01:54:15;;;;;;;54.72;20.75;;;;;;;5.72;72.70;103287.69;5027728;28;20474;-69
2022/01/13 01:56:44;;;;;;;50.17;21.52;;;;;;;5.58;72.64;103281.44;5029012;28;20050;-70
2022/01/13 01:59:14;;;;;;;46.90;20.17;;;;;;;5.54;72.85;103284.91;5028824;28;20048;-69
2022/01/13 02:01:41;;;;;;;47.92;20.70;;;;;;;5.53;72.78;103271.88;5027818;28;20466;-69
2022/01/13 02:04:08;;;;;;;52.20;21.27;;;;;;;5.34;73.66;103274.28;5028890;28;20041;-69
2022/01/13 02:06:35;;;;;;;39.97;19.63;;;;;;;5.54;72.57;103266.69;5028562;28;20111;-69
2022/01/13 02:09:01;;;;;;;53.75;22.58;;;;;;;5.48;72.97;103264.00;5028450;28;20128;-69
2022/01/13 02:11:29;;;;;;;62.10;42.03;;;;;;;4.64;76.39;103269.13;5014290;28;20490;-69
2022/01/13 02:14:09;;;;;;;46.22;19.52;;;;;;;4.97;75.53;103266.06;5027037;28;20107;-69
2022/01/13 02:16:44;;;;;;;56.67;22.60;;;;;;;4.98;75.58;103263.50;5027897;28;20152;-69
2022/01/13 02:19:10;;;;;;;48.65;20.13;;;;;;;5.17;75.06;103274.97;5028368;28;20045;-69
2022/01/13 02:21:38;;;;;;;51.25;20.63;;;;;;;5.16;75.29;103270.63;5026744;28;20046;-69
2022/01/13 02:24:05;;;;;;;55.45;20.10;;;;;;;5.19;75.09;103273.25;5027688;28;20095;-69
2022/01/13 02:26:31;;;;;;;44.22;21.90;;;;;;;4.77;76.18;103264.09;5027084;28;20421;-69
2022/01/13 02:28:59;;;;;;;46.28;23.27;;;;;;;4.46;77.45;103263.69;5012735;28;20045;-69
2022/01/13 02:31:26;;;;;;;97.80;88.30;;;;;;;4.45;77.57;103260.22;5027567;28;20048;-69
2022/01/13 02:33:53;;;;;;;46.78;20.13;;;;;;;4.73;76.62;103262.31;5027954;28;20045;-69
2022/01/13 02:36:22;;;;;;;45.05;20.00;;;;;;;5.17;74.97;103255.06;5028517;28;20045;-69
2022/01/13 02:38:50;;;;;;;50.75;22.15;;;;;;;5.17;74.45;103259.38;5027683;28;20140;-69
2022/01/13 02:41:17;;;;;;;58.45;30.48;;;;;;;4.79;76.01;103249.41;5027716;28;20071;-69
2022/01/13 02:43:45;;;;;;;51.92;23.02;;;;;;;4.75;76.21;103252.81;5026150;28;20057;-69
2022/01/13 02:46:30;;;;;;;52.17;21.10;;;;;;;4.74;76.68;103251.06;5028319;28;20038;-69
2022/01/13 02:48:56;;;;;;;177.02;161.07;;;;;;;4.68;76.43;103243.22;5026079;28;20084;-69
2022/01/13 02:51:22;;;;;;;53.00;20.48;;;;;;;4.94;75.90;103245.25;5026925;28;20132;-69
2022/01/13 02:53:50;;;;;;;62.70;35.85;;;;;;;4.75;76.28;103242.44;5030385;28;20041;-69
2022/01/13 02:56:17;;;;;;;54.50;22.45;;;;;;;4.82;76.27;103239.03;5037811;28;20041;-69
2022/01/13 02:58:45;;;;;;;53.03;22.70;;;;;;;4.91;75.92;103243.50;5028008;28;20045;-69
2022/01/13 03:01:12;;;;;;;48.05;22.63;;;;;;;5.04;75.20;103228.88;5027121;28;20534;-69
2022/01/13 03:03:39;;;;;;;50.22;22.50;;;;;;;5.01;75.58;103223.66;5027298;28;20050;-69
2022/01/13 03:06:07;;;;;;;54.38;23.17;;;;;;;4.92;75.90;103227.00;5027642;28;24723;-69
2022/01/13 03:08:33;;;;;;;61.33;23.70;;;;;;;4.80;76.03;103232.94;5027573;28;20099;-69
2022/01/13 03:11:01;;;;;;;57.88;25.33;;;;;;;4.79;76.51;103223.41;5027585;28;20071;-69
2022/01/13 03:13:29;;;;;;;61.13;27.15;;;;;;;4.80;75.83;103219.94;5027177;28;20041;-69
2022/01/13 03:15:55;;;;;;;48.47;23.02;;;;;;;4.94;76.12;103232.25;5024261;28;20049;-69
2022/01/13 03:18:22;;;;;;;66.22;25.15;;;;;;;4.93;76.11;103231.34;5037046;28;20045;-69
2022/01/13 03:20:48;;;;;;;55.40;24.65;;;;;;;4.80;77.00;103232.94;5027174;28;20518;-69
2022/01/13 03:23:17;;;;;;;64.35;34.38;;;;;;;4.64;77.17;103228.44;5027842;28;20049;-69
2022/01/13 03:25:45;;;;;;;61.35;26.15;;;;;;;4.80;77.31;103229.50;5027717;28;20042;-69
2022/01/13 03:28:17;;;;;;;70.80;38.33;;;;;;;4.71;77.26;103230.25;5027116;28;20411;-69
2022/01/13 03:30:43;;;;;;;59.05;26.63;;;;;;;4.94;76.77;103221.84;5017162;28;20053;-70
2022/01/13 03:33:10;;;;;;;67.68;30.65;;;;;;;4.90;77.00;103216.59;5027258;28;20054;-69
2022/01/13 03:35:37;;;;;;;65.15;27.27;;;;;;;4.88;77.11;103228.69;5017508;28;20062;-69
2022/01/13 03:38:05;;;;;;;65.63;27.85;;;;;;;4.68;78.01;103213.75;5011941;28;20077;-69
2022/01/13 03:40:31;;;;;;;67.25;29.95;;;;;;;4.73;78.02;103222.47;5007436;28;20049;-69
2022/01/13 03:42:59;;;;;;;63.10;30.35;;;;;;;4.48;78.65;103215.22;5016390;28;20088;-69
2022/01/13 03:45:27;;;;;;;74.88;31.75;;;;;;;4.77;77.79;103225.09;5026535;28;20041;-70
2022/01/13 03:47:54;;;;;;;92.22;75.88;;;;;;;4.37;78.79;103212.47;5025165;28;20220;-69
2022/01/13 03:50:20;;;;;;;66.68;33.88;;;;;;;4.45;79.34;103210.84;5026875;28;20046;-69
2022/01/13 03:53:49;;;;;;;68.20;29.88;;;;;;;4.22;80.48;103209.66;5026429;28;20049;-69
2022/01/13 03:57:07;;;;;;;86.97;52.90;;;;;;;4.38;79.72;103196.94;5021150;28;20037;-69
2022/01/13 04:00:09;;;;;;;72.75;28.75;;;;;;;4.38;80.38;103198.66;4983013;28;20407;-69
2022/01/13 04:02:37;;;;;;;72.22;28.65;;;;;;;4.31;80.78;103189.03;4974466;28;20090;-69
2022/01/13 04:05:03;;;;;;;75.47;29.10;;;;;;;4.21;81.50;103180.22;4993450;28;20588;-69
2022/01/13 04:07:30;;;;;;;91.53;61.05;;;;;;;4.29;80.71;103180.34;5016289;28;20103;-69
2022/01/13 04:10:25;;;;;;;70.53;33.88;;;;;;;4.33;80.56;103169.13;5026656;28;20429;-69
2022/01/13 04:12:51;;;;;;;83.65;33.17;;;;;;;4.39;80.35;103175.31;5025076;28;20041;-70
2022/01/13 04:15:20;;;;;;;79.85;35.60;;;;;;;4.30;80.55;103177.75;5026158;28;20049;-69
2022/01/13 04:17:48;;;;;;;108.95;81.03;;;;;;;4.19;81.54;103175.88;5021986;28;20052;-69
2022/01/13 04:20:14;;;;;;;91.20;76.32;;;;;;;4.48;80.07;103173.63;5042477;28;20071;-69
2022/01/13 04:22:41;;;;;;;76.38;41.90;;;;;;;4.36;81.02;103170.03;5041508;28;20045;-69
2022/01/13 04:25:08;;;;;;;75.53;34.80;;;;;;;4.53;80.29;103167.66;5026971;28;20102;-69
2022/01/13 04:27:38;;;;;;;142.82;128.75;;;;;;;4.24;81.35;103169.03;5025322;28;20547;-69
2022/01/13 04:30:34;;;;;;;71.30;28.42;;;;;;;4.46;80.81;103162.38;5026067;28;20464;-69
2022/01/13 04:33:02;;;;;;;59.88;27.73;;;;;;;4.79;79.00;103174.03;5026175;28;20041;-70
2022/01/13 04:35:29;;;;;;;70.90;29.92;;;;;;;4.65;79.01;103172.13;5025941;28;20090;-69
2022/01/13 04:37:55;;;;;;;68.97;28.40;;;;;;;4.68;79.09;103172.16;5024833;28;20053;-69
2022/01/13 04:40:21;;;;;;;81.13;41.78;;;;;;;4.81;78.28;103180.09;5027580;28;20068;-69
2022/01/13 04:42:53;;;;;;;69.65;28.95;;;;;;;4.66;79.05;103166.06;5030471;28;20077;-70
2022/01/13 04:45:20;;;;;;;76.07;33.45;;;;;;;4.47;80.46;103172.81;5028842;28;20049;-69
2022/01/13 04:47:48;;;;;;;73.10;33.33;;;;;;;4.57;80.17;103169.44;5029735;28;20050;-69
2022/01/13 04:50:16;;;;;;;81.00;36.00;;;;;;;4.69;79.93;103169.56;5030707;28;20065;-69
2022/01/13 04:52:42;;;;;;;85.15;32.42;;;;;;;4.95;78.36;103162.06;5030789;28;20567;-69
2022/01/13 04:55:11;;;;;;;75.38;31.88;;;;;;;4.73;79.50;103173.09;5030226;28;20579;-69
2022/01/13 04:57:38;;;;;;;80.25;34.90;;;;;;;4.74;79.45;103167.91;5028602;28;20132;-69
2022/01/13 05:00:06;;;;;;;73.25;32.65;;;;;;;4.84;79.27;103159.34;5026672;28;20042;-69
2022/01/13 05:02:33;;;;;;;85.28;36.05;;;;;;;4.95;78.58;103169.00;5019708;28;20073;-69
2022/01/13 05:04:59;;;;;;;81.50;42.25;;;;;;;4.88;78.59;103174.09;5021253;28;20041;-69
2022/01/13 05:07:27;;;;;;;131.57;87.65;;;;;;;4.79;79.08;103173.16;5017186;28;20095;-70
2022/01/13 05:09:53;;;;;;;89.55;32.90;;;;;;;4.62;79.84;103177.31;5029808;28;20123;-69
2022/01/13 05:12:25;;;;;;;95.13;33.22;;;;;;;4.60;80.50;103177.28;5030240;28;20069;-69
2022/01/13 05:14:55;;;;;;;91.10;32.83;;;;;;;4.88;78.91;103181.03;5028773;28;20069;-69
2022/01/13 05:17:46;;;;;;;106.20;39.00;;;;;;;4.82;79.10;103187.06;5031225;28;20127;-69
2022/01/13 05:20:15;;;;;;;96.32;34.10;;;;;;;4.95;79.04;103188.06;5031924;28;20041;-69
2022/01/13 05:22:43;;;;;;;101.78;42.65;;;;;;;4.68;79.77;103192.94;5032105;28;20060;-69
2022/01/13 05:25:11;;;;;;;99.85;34.60;;;;;;;4.58;80.12;103193.72;5023630;28;20101;-69
2022/01/13 05:27:37;;;;;;;96.47;33.20;;;;;;;4.56;80.86;103203.19;5030602;28;20068;-70
2022/01/13 05:30:05;;;;;;;105.15;37.80;;;;;;;4.56;80.05;103195.41;5031717;28;20046;-69
2022/01/13 05:32:32;;;;;;;110.57;35.47;;;;;;;4.77;80.08;103190.44;5031825;28;20418;-69
2022/01/13 05:34:58;;;;;;;97.35;37.10;;;;;;;4.58;80.14;103185.91;5031998;28;20410;-69
2022/01/13 05:37:24;;;;;;;102.40;35.67;;;;;;;4.93;79.23;103196.69;5030949;28;20119;-69
2022/01/13 05:39:52;;;;;;;92.22;32.75;;;;;;;5.13;78.62;103192.56;5031593;28;20094;-69
2022/01/13 05:42:18;;;;;;;109.70;34.38;;;;;;;4.97;78.90;103201.06;5029611;28;20103;-69
2022/01/13 05:44:45;;;;;;;110.35;37.17;;;;;;;4.76;79.33;103189.59;5031671;28;20674;-70
2022/01/13 05:47:12;;;;;;;85.88;31.23;;;;;;;4.52;80.89;103180.63;5028571;28;20041;-69
2022/01/13 05:49:40;;;;;;;110.57;35.08;;;;;;;4.67;80.49;103180.81;5043334;28;20045;-69
2022/01/13 05:52:07;;;;;;;102.22;35.92;;;;;;;4.68;80.88;103179.97;5035874;28;20056;-69
2022/01/13 05:54:33;;;;;;;103.45;36.30;;;;;;;4.61;80.57;103184.22;5029571;28;20096;-70
2022/01/13 05:57:01;;;;;;;91.85;35.08;;;;;;;4.90;79.90;103180.22;5030855;28;20053;-69
2022/01/13 05:59:27;;;;;;;116.03;52.63;;;;;;;4.72;80.26;103172.22;5031043;28;20052;-69
2022/01/13 06:01:54;;;;;;;150.18;103.68;;;;;;;4.52;81.61;103175.44;5031051;28;20116;-69
2022/01/13 06:04:20;;;;;;;108.07;35.17;;;;;;;4.73;80.68;103167.91;5031099;28;20057;-69
2022/01/13 06:06:47;;;;;;;132.23;65.70;;;;;;;4.28;82.26;103166.50;5028871;28;20045;-69
2022/01/13 06:09:13;;;;;;;113.60;47.40;;;;;;;4.38;81.96;103160.56;5028041;28;20092;-69
2022/01/13 06:11:43;;;;;;;116.30;38.95;;;;;;;4.58;81.54;103165.97;5026738;28;20120;-69
2022/01/13 06:14:11;;;;;;;124.03;49.08;;;;;;;4.40;82.25;103163.16;5030127;28;20092;-70
2022/01/13 06:16:37;;;;;;;118.82;43.08;;;;;;;4.34;82.58;103161.38;5027649;28;20089;-69
2022/01/13 06:19:03;;;;;;;119.05;37.80;;;;;;;4.35;82.87;103163.13;5027519;28;20103;-69
2022/01/13 06:21:30;;;;;;;181.80;119.43;;;;;;;4.31;82.59;103163.06;5030611;28;20119;-69
2022/01/13 06:23:57;;;;;;;114.13;37.72;;;;;;;4.68;81.46;103167.84;5030359;28;20053;-69
2022/01/13 06:26:23;;;;;;;132.65;41.45;;;;;;;4.80;81.16;103157.56;5025220;28;20045;-69
2022/01/13 06:28:49;;;;;;;132.32;52.40;;;;;;;4.55;81.82;103158.16;5030080;28;20049;-69
2022/01/13 06:31:17;;;;;;;116.70;37.97;;;;;;;4.76;81.58;103167.94;5026910;28;20049;-69
2022/01/13 06:33:43;;;;;;;118.68;40.25;;;;;;;4.74;81.72;103164.41;5027806;28;20452;-69
2022/01/13 06:36:10;;;;;;;124.00;54.60;;;;;;;4.59;81.94;103180.72;5042732;28;20046;-69
2022/01/13 06:38:36;;;;;;;121.55;39.42;;;;;;;4.57;82.41;103192.84;5032572;28;20770;-69
2022/01/13 06:41:02;;;;;;;133.43;54.33;;;;;;;4.73;81.25;103186.94;5036697;28;20645;-69
2022/01/13 06:43:29;;;;;;;123.35;41.08;;;;;;;4.84;81.25;103206.13;5031461;28;20041;-69
2022/01/13 06:45:56;;;;;;;120.75;39.38;;;;;;;4.84;80.85;103200.91;5029898;28;20501;-69
2022/01/13 06:48:24;;;;;;;122.75;46.75;;;;;;;4.79;81.18;103202.63;5029151;28;20130;-69
2022/01/13 06:50:50;;;;;;;122.88;40.67;;;;;;;4.95;80.82;103198.47;5030207;28;20069;-69
2022/01/13 06:53:16;;;;;;;109.72;40.67;;;;;;;4.86;80.73;103220.03;5030417;28;20119;-69
2022/01/13 06:55:43;;;;;;;159.75;108.72;;;;;;;4.54;82.31;103218.78;5029820;28;20099;-69
2022/01/13 06:58:09;;;;;;;144.68;41.47;;;;;;;4.69;81.49;103213.75;5041595;28;20095;-69
2022/01/13 07:00:37;;;;;;;110.45;39.78;;;;;;;4.96;80.68;103221.00;5022170;28;20045;-69
2022/01/13 07:03:04;;;;;;;130.77;41.65;;;;;;;4.75;81.72;103221.63;5023809;28;20059;-69
2022/01/13 07:05:31;;;;;;;133.90;40.63;;;;;;;4.81;81.38;103213.03;5047710;28;20108;-69
2022/01/13 07:07:58;;;;;;;113.75;37.47;;;;;;;4.91;80.95;103210.53;5041622;28;20118;-69
2022/01/13 07:10:24;;;;;;;119.00;44.88;;;;;;;4.83;80.59;103217.41;5031773;28;20042;-69
2022/01/13 07:12:50;;;;;;;115.20;38.38;;;;;;;4.73;81.60;103218.13;5034068;28;20045;-69
2022/01/13 07:15:17;;;;;;;121.10;47.42;;;;;;;4.61;81.69;103214.53;5028616;28;20054;-69
2022/01/13 07:17:44;;;;;;;124.50;39.42;;;;;;;4.86;80.58;103222.63;5036565;28;20044;-69
2022/01/13 07:20:11;;;;;;;128.45;40.13;;;;;;;4.98;80.37;103223.63;5036156;28;20589;-69
2022/01/13 07:22:40;;;;;;;134.80;40.22;;;;;;;4.77;81.10;103227.69;5028737;28;20045;-69
2022/01/13 07:25:08;;;;;;;124.72;40.28;;;;;;;4.77;81.44;103212.09;5041455;28;20096;-69
2022/01/13 07:27:35;;;;;;;126.45;50.67;;;;;;;4.80;81.03;103212.13;5033268;28;20098;-69
2022/01/13 07:30:01;;;;;;;156.95;94.72;;;;;;;4.23;83.42;103199.31;5044841;28;20517;-69
2022/01/13 07:32:28;;;;;;;123.20;52.08;;;;;;;4.14;84.09;103203.53;5017572;28;20103;-69
2022/01/13 07:34:54;;;;;;;133.18;41.65;;;;;;;4.55;82.78;103204.91;5037746;28;20053;-69
2022/01/13 07:37:24;;;;;;;121.28;39.88;;;;;;;4.71;81.91;103216.38;5035815;28;20442;-69
2022/01/13 07:39:52;;;;;;;124.65;38.05;;;;;;;5.17;79.91;103217.75;5041355;28;20044;-69
2022/01/13 07:42:18;;;;;;;111.00;35.90;;;;;;;4.88;81.00;103209.63;5028742;28;20045;-69
2022/01/13 07:44:45;;;;;;;127.30;51.72;;;;;;;4.84;81.22;103205.28;5027148;28;20045;-69
2022/01/13 07:47:11;;;;;;;134.75;44.15;;;;;;;4.54;82.67;103205.78;5025620;28;20067;-69
2022/01/13 07:49:37;;;;;;;126.97;52.00;;;;;;;4.34;83.41;103189.94;5024709;28;20088;-69
2022/01/13 07:52:04;;;;;;;202.48;159.98;;;;;;;4.21;83.59;103197.56;5031653;28;20094;-69
2022/01/13 07:54:31;;;;;;;118.93;39.05;;;;;;;4.37;83.79;103207.28;5029591;28;20041;-69
2022/01/13 07:57:00;;;;;;;146.50;46.55;;;;;;;4.34;83.83;103213.31;5032126;28;20053;-69
2022/01/13 07:59:28;;;;;;;115.32;39.60;;;;;;;4.80;82.02;103214.75;5041850;28;20049;-69
2022/01/13 08:01:55;;;;;;;126.63;47.85;;;;;;;4.90;81.61;103208.81;5024122;28;20049;-69
2022/01/13 08:04:21;;;;;;;113.85;39.05;;;;;;;4.94;81.53;103214.91;5037862;28;20041;-69
2022/01/13 08:06:47;;;;;;;125.95;45.58;;;;;;;5.04;80.79;103213.28;5033396;28;20463;-69
2022/01/13 08:09:14;;;;;;;131.32;81.10;;;;;;;4.52;82.87;103223.06;5035384;28;20037;-69
2022/01/13 08:11:40;;;;;;;116.07;36.25;;;;;;;4.45;83.75;103217.78;5030357;28;20099;-69
2022/01/13 08:14:08;;;;;;;105.15;35.00;;;;;;;4.70;82.49;103217.22;5024526;28;20107;-69
2022/01/13 08:16:37;;;;;;;106.43;36.83;;;;;;;4.98;81.60;103210.63;5032397;28;20391;-69
2022/01/13 08:21:48;;;;;;;192.20;170.45;;;;;;;4.63;82.81;103200.69;5022176;28;20561;-69
2022/01/13 08:24:15;;;;;;;107.50;44.03;;;;;;;4.83;81.99;103217.41;5035124;28;20057;-69
2022/01/13 08:26:41;;;;;;;105.20;35.08;;;;;;;4.71;83.16;103217.25;5029947;28;20046;-69
2022/01/13 08:29:09;;;;;;;104.70;45.58;;;;;;;5.07;81.42;103221.97;5018839;28;20465;-69
2022/01/13 08:31:35;;;;;;;102.90;36.38;;;;;;;4.84;82.81;103223.47;5018365;28;20096;-69
2022/01/13 08:34:02;;;;;;;102.03;36.00;;;;;;;4.84;82.44;103237.31;5027928;28;20077;-69
2022/01/13 08:36:28;;;;;;;114.82;53.50;;;;;;;4.76;82.82;103227.72;5035114;28;20042;-69
2022/01/13 08:38:54;;;;;;;113.22;40.17;;;;;;;5.00;81.78;103216.69;5035559;28;20567;-69
2022/01/13 08:41:21;;;;;;;108.70;69.85;;;;;;;4.79;82.33;103215.63;5032705;28;20552;-69
2022/01/13 08:43:47;;;;;;;108.43;38.25;;;;;;;4.95;82.85;103219.28;5029201;28;20040;-69
2022/01/13 08:46:15;;;;;;;98.97;36.08;;;;;;;4.88;82.87;103226.09;5035250;28;20623;-69
2022/01/13 08:48:41;;;;;;;106.32;35.72;;;;;;;5.31;81.17;103221.38;5028521;28;20418;-69
2022/01/13 08:51:07;;;;;;;99.72;37.60;;;;;;;5.30;80.95;103224.81;5032279;28;20480;-69
2022/01/13 08:53:34;;;;;;;101.68;36.58;;;;;;;5.52;80.07;103215.47;5034770;28;20061;-70
2022/01/13 08:56:00;;;;;;;98.93;32.13;;;;;;;5.21;81.13;103222.13;5039198;28;20107;-70
2022/01/13 08:58:27;;;;;;;96.22;36.50;;;;;;;5.47;80.55;103215.41;5037272;28;20056;-70
2022/01/13 09:00:55;;;;;;;113.78;52.67;;;;;;;5.18;81.00;103214.28;5028741;28;20045;-69
2022/01/13 09:03:24;;;;;;;100.57;35.13;;;;;;;5.48;80.55;103209.38;5028892;28;20051;-69
2022/01/13 09:05:50;;;;;;;107.43;49.72;;;;;;;5.29;80.80;103225.66;5034716;28;20556;-69
2022/01/13 09:08:16;;;;;;;142.93;87.50;;;;;;;5.21;81.39;103220.38;5038232;28;20049;-69
2022/01/13 09:10:44;;;;;;;89.68;39.17;;;;;;;5.04;82.19;103224.56;5037077;28;20414;-69
2022/01/13 09:13:14;;;;;;;119.07;55.33;;;;;;;4.81;83.43;103237.28;5020717;28;20103;-69
2022/01/13 09:15:46;;;;;;;143.48;71.72;;;;;;;5.13;82.11;103223.78;5031354;28;20052;-70
2022/01/13 09:18:17;;;;;;;106.75;36.13;;;;;;;5.16;81.97;103235.09;5036945;28;20045;-69
2022/01/13 09:20:46;;;;;;;;;;;;;;;5.12;82.13;103229.84;5041781;28;20128;-69
2022/01/13 09:23:12;;;;;;;143.13;59.25;;;;;;;5.20;81.89;103233.38;5033733;28;19924;-69
2022/01/13 09:25:39;;;;;;;94.35;31.20;;;;;;;5.53;80.69;103236.31;5041548;28;20045;-70
2022/01/13 09:28:08;;;;;;;93.90;33.08;;;;;;;5.63;79.95;103232.91;5040818;28;20144;-69
2022/01/13 09:30:35;;;;;;;98.93;33.25;;;;;;;5.84;79.28;103238.28;5037795;28;20049;-69
2022/01/13 09:33:02;;;;;;;159.82;142.75;;;;;;;5.54;79.61;103232.84;5028836;28;20107;-69
2022/01/13 09:35:29;;;;;;;96.55;32.40;;;;;;;5.83;79.29;103244.38;5041269;28;20083;-69
2022/01/13 09:37:56;;;;;;;127.88;75.63;;;;;;;5.60;80.21;103240.72;5032382;28;20045;-69
2022/01/13 09:40:23;;;;;;;94.13;30.85;;;;;;;5.44;81.03;103227.53;5020917;28;20567;-70
2022/01/13 09:42:50;;;;;;;93.72;30.80;;;;;;;5.55;80.83;103226.78;5023405;28;20045;-70
2022/01/13 09:45:18;;;;;;;89.97;32.80;;;;;;;5.45;80.88;103232.75;5036925;28;20098;-70
2022/01/13 09:47:45;;;;;;;107.55;32.17;;;;;;;5.39;81.09;103237.91;5038072;28;20095;-69
2022/01/13 09:50:16;;;;;;;88.82;33.78;;;;;;;5.60;80.42;103239.84;5030211;28;20049;-69
2022/01/13 09:52:43;;;;;;;91.80;30.73;;;;;;;5.82;79.56;103242.63;5033716;28;20098;-69
2022/01/13 09:55:13;;;;;;;105.72;60.20;;;;;;;5.78;79.13;103245.19;5048518;28;20064;-69
2022/01/13 09:57:43;;;;;;;76.95;28.67;;;;;;;5.71;79.50;103249.47;5043180;28;20054;-69
2022/01/13 10:00:10;;;;;;;92.05;31.58;;;;;;;5.58;80.00;103250.22;5031643;28;20574;-69
2022/01/13 10:02:36;;;;;;;98.25;30.98;;;;;;;6.08;78.89;103255.88;5020290;28;20583;-69
2022/01/13 10:05:04;;;;;;;92.32;32.00;;;;;;;5.99;79.09;103247.97;5040387;28;20049;-69
2022/01/13 10:07:32;;;;;;;87.55;39.30;;;;;;;5.66;79.79;103242.47;5035959;28;20098;-70
2022/01/13 10:10:00;;;;;;;93.82;33.72;;;;;;;5.81;79.44;103242.59;5027974;28;20056;-70
2022/01/13 10:12:33;;;;;;;98.30;31.25;;;;;;;6.08;78.97;103240.25;5017274;28;20499;-69
2022/01/13 10:17:46;;;;;;;78.38;30.30;;;;;;;5.83;79.44;103246.97;5024591;28;20316;-70
2022/01/13 10:20:14;;;;;;;92.97;31.70;;;;;;;6.26;78.45;103244.69;5018718;28;20050;-69
2022/01/13 10:22:41;;;;;;;80.35;29.52;;;;;;;6.55;76.82;103253.53;5017963;28;20469;-69
2022/01/13 10:25:08;;;;;;;77.50;31.67;;;;;;;6.49;76.76;103256.13;5012456;28;20041;-69
2022/01/13 10:27:39;;;;;;;83.07;28.83;;;;;;;6.38;77.31;103252.59;5014292;28;20049;-69
2022/01/13 10:30:14;;;;;;;87.03;38.30;;;;;;;6.32;77.61;103260.34;5015876;28;20054;-70
2022/01/13 10:32:43;;;;;;;98.38;43.88;;;;;;;6.02;78.07;103247.16;5027428;28;20037;-69
2022/01/13 10:35:12;;;;;;;86.18;28.63;;;;;;;5.91;79.20;103244.47;5038359;28;20048;-69
2022/01/13 10:37:40;;;;;;;87.72;31.83;;;;;;;6.24;77.93;103249.91;5032995;28;20413;-69
2022/01/13 10:40:11;;;;;;;84.35;31.08;;;;;;;6.36;77.82;103249.94;5033213;28;20049;-69
2022/01/13 10:45:38;;;;;;;72.72;27.83;;;;;;;6.35;77.39;103235.22;5046911;28;20651;-69
2022/01/13 10:48:07;;;;;;;66.25;25.50;;;;;;;6.26;78.12;103231.66;5025580;28;20111;-70
2022/01/13 10:50:36;;;;;;;78.05;31.70;;;;;;;6.43;77.25;103221.34;5037836;28;20103;-69
2022/01/13 10:53:05;;;;;;;84.25;32.08;;;;;;;6.32;77.21;103216.03;5027993;28;20099;-69
2022/01/13 10:55:35;;;;;;;78.72;29.83;;;;;;;6.75;76.45;103214.50;5021525;28;20120;-69
2022/01/13 10:58:03;;;;;;;79.10;33.15;;;;;;;6.30;76.99;103210.84;5036544;28;20094;-69
2022/01/13 11:00:34;;;;;;;84.72;28.95;;;;;;;6.47;76.93;103215.28;5030079;28;20050;-70
2022/01/13 11:03:04;;;;;;;94.55;58.72;;;;;;;6.38;77.41;103205.69;5031507;28;20045;-69
2022/01/13 11:05:33;;;;;;;82.87;47.97;;;;;;;5.98;78.32;103206.31;5036913;28;20463;-69
2022/01/13 11:08:03;;;;;;;80.50;28.05;;;;;;;6.36;77.79;103195.22;5030412;28;20087;-69
2022/01/13 11:10:29;;;;;;;64.78;26.60;;;;;;;6.31;78.29;103189.16;5029924;28;20060;-69
2022/01/13 11:12:57;;;;;;;74.20;26.38;;;;;;;6.58;76.84;103183.16;5032955;28;20044;-70
2022/01/13 11:15:25;;;;;;;77.05;40.45;;;;;;;6.38;77.25;103195.25;5019825;28;20054;-70
2022/01/13 11:17:54;;;;;;;59.65;23.27;;;;;;;6.55;77.08;103201.41;5029157;28;20125;-69
2022/01/13 11:20:22;;;;;;;76.65;45.97;;;;;;;6.66;77.26;103191.88;5029875;28;20041;-70
2022/01/13 11:22:51;;;;;;;60.20;23.58;;;;;;;6.89;76.12;103178.91;5029498;28;20049;-70
2022/01/13 11:25:19;;;;;;;60.42;23.88;;;;;;;6.93;75.83;103170.22;5028012;28;20463;-70
2022/01/13 11:27:46;;;;;;;59.92;23.65;;;;;;;7.14;75.14;103169.38;5029216;28;20046;-69
2022/01/13 11:30:15;;;;;;;64.20;21.98;;;;;;;7.44;73.66;103166.78;5029640;28;20045;-69
2022/01/13 11:32:45;;;;;;;56.22;21.75;;;;;;;7.39;73.56;103163.28;5029381;28;20053;-70
2022/01/13 11:35:13;;;;;;;56.08;20.85;;;;;;;7.10;75.08;103157.19;5029133;28;20394;-70